Avalon — PBSF — position and weather

sailwx.info

Track history (hours):
 
Tides and Currents Weather Stations Pressure Air Temp Water Temp Dewpoint Dewpoint Depression Visibility Wind Speed Wind Dir Waves Ship Positions

Avalon

Last reported at 2014-Sep-16 22:17 UTC. Time now 2014-Sep-17 13:37 UTC.
Position N 58°37' E 017°23'.

Length 89 m; draft 3.4 m.

Type: Cargo ship. MMSI: 246578000.

Date/timePositionNaut miles runAvg speedWind from/ knotsBaromVisibWave heightAir tempDewpointWater temp
2014-Sep-16 22:17N 58°37' E 017°23'810.8
2014-Sep-16 21:33N 58°38' E 017°08'1110.7
2014-Sep-16 20:34N 58°37' E 016°48'1111.0
2014-Sep-16 19:33N 58°39' E 016°27'7 6.6
2014-Sep-16 18:32N 58°37' E 016°15'0 0.0
2014-Sep-16 17:32N 58°37' E 016°15'0 0.0
2014-Sep-16 16:32N 58°37' E 016°15'0 0.0
2014-Sep-16 15:32N 58°37' E 016°15'0 0.0
2014-Sep-16 14:32N 58°37' E 016°15'0 0.0
2014-Sep-16 13:32N 58°37' E 016°15'0 0.0
2014-Sep-16 12:32N 58°37' E 016°15'0 0.0
2014-Sep-16 11:32N 58°37' E 016°15'0 0.0
2014-Sep-16 10:32N 58°37' E 016°15'0 0.0
2014-Sep-16 09:32N 58°37' E 016°15'0 0.0
2014-Sep-16 08:32N 58°37' E 016°15'0 0.0
2014-Sep-16 07:32N 58°37' E 016°15'0 0.0
2014-Sep-16 06:32N 58°37' E 016°15'0 0.0
2014-Sep-16 05:32N 58°37' E 016°15'0 0.0
2014-Sep-16 04:32N 58°37' E 016°15'0 0.0
2014-Sep-16 03:32N 58°37' E 016°15'0 0.0
2014-Sep-16 02:32N 58°37' E 016°15'0 0.0
2014-Sep-16 01:32N 58°37' E 016°15'0 0.0
2014-Sep-16 00:32N 58°37' E 016°15'0 0.0
2014-Sep-15 23:32N 58°37' E 016°15'0 0.0
2014-Sep-15 22:32N 58°37' E 016°15'0 0.0
2014-Sep-15 21:32N 58°37' E 016°15'0 0.0
2014-Sep-15 20:32N 58°37' E 016°15'0 0.0
2014-Sep-15 19:29N 58°37' E 016°15'0 0.0
2014-Sep-15 18:32N 58°37' E 016°15'0 0.0
2014-Sep-15 17:29N 58°37' E 016°15'0 0.0
2014-Sep-15 16:32N 58°37' E 016°15'0 0.0
2014-Sep-15 15:32N 58°37' E 016°15'0 0.0
2014-Sep-15 14:32N 58°37' E 016°15'0 0.0
2014-Sep-15 13:32N 58°37' E 016°15'0 0.0
2014-Sep-15 12:32N 58°37' E 016°15'0 0.0
2014-Sep-15 11:32N 58°37' E 016°15'0 0.0
2014-Sep-15 10:32N 58°37' E 016°15'0 0.0
2014-Sep-15 09:32N 58°37' E 016°15'0 0.0
2014-Sep-15 08:32N 58°37' E 016°15'0 0.0
2014-Sep-15 07:32N 58°37' E 016°15'0 0.0
2014-Sep-15 06:32N 58°37' E 016°15'0 0.0
2014-Sep-15 05:32N 58°37' E 016°15'0 0.0
2014-Sep-15 04:32N 58°37' E 016°15'2 1.6
2014-Sep-15 03:33N 58°38' E 016°18'8 7.5
2014-Sep-15 02:33N 58°39' E 016°32'8 8.1
2014-Sep-15 01:33N 58°37' E 016°47'8 7.6
2014-Sep-15 00:27N 58°38' E 017°04'7 7.8
2014-Sep-14 23:33N 58°37' E 017°17'8 5.4
2014-Sep-14 22:05N 58°30' E 017°25'46 9.4
2014-Sep-14 17:09N 57°44' E 017°18'6 9.5
2014-Sep-14 16:33N 57°38' E 017°18'9 9.4
2014-Sep-14 15:33N 57°29' E 017°16'10 9.5
2014-Sep-14 14:33N 57°20' E 017°15'10 9.6
2014-Sep-14 13:33N 57°10' E 017°12'10 9.6
2014-Sep-14 12:33N 57°01' E 017°08'9 9.3
2014-Sep-14 11:33N 56°52' E 017°05'10 9.3
2014-Sep-14 10:32N 56°42' E 017°02'9 9.3
2014-Sep-14 09:33N 56°33' E 016°58'9 9.1
2014-Sep-14 08:33N 56°24' E 016°55'20 9.0
2014-Sep-14 06:22N 56°05' E 016°47'17 8.7
2014-Sep-14 04:26N 55°56' E 016°22'66 8.3
2014-Sep-13 20:33N 55°25' E 014°40'8 8.0
2014-Sep-13 19:33N 55°19' E 014°30'8 7.7
2014-Sep-13 18:33N 55°13' E 014°21'40 7.8
2014-Sep-13 13:29N 55°14' E 013°12'9 9.5
2014-Sep-13 12:33N 55°15' E 012°56'10 9.5
2014-Sep-13 11:33N 55°18' E 012°40'9 9.2
2014-Sep-13 10:33N 55°27' E 012°40'9 9.4
2014-Sep-13 09:33N 55°36' E 012°42'9 8.9
2014-Sep-13 08:33N 55°45' E 012°40'10 9.6
2014-Sep-13 07:33N 55°54' E 012°38'9 9.1
2014-Sep-13 06:33N 56°03' E 012°38'9 8.8
2014-Sep-13 05:33N 56°09' E 012°25'10 9.7
2014-Sep-13 04:33N 56°14' E 012°11'9 9.0
2014-Sep-13 03:33N 56°22' E 012°02'1010.1
2014-Sep-13 02:32N 56°32' E 011°58'10 9.9
2014-Sep-13 01:33N 56°41' E 011°54'10 9.8
2014-Sep-13 00:33N 56°51' E 011°48'10 9.6
2014-Sep-12 23:32N 56°60' E 011°42'9 9.6
2014-Sep-12 22:33N 57°09' E 011°36'1010.1
2014-Sep-12 21:33N 57°18' E 011°29'1010.3
2014-Sep-12 20:33N 57°27' E 011°22'9 8.9
2014-Sep-12 19:33N 57°34' E 011°11'1010.0
2014-Sep-12 18:33N 57°41' E 010°57'10 9.6
2014-Sep-12 17:33N 57°47' E 010°44'1010.1
2014-Sep-12 16:33N 57°46' E 010°25'1010.4
2014-Sep-12 15:33N 57°44' E 010°06'1010.4
2014-Sep-12 14:33N 57°42' E 009°47'1110.3
2014-Sep-12 13:28N 57°39' E 009°27'38810.0
2014-Sep-10 22:33N 58°36' W 002°39'1111.4
2014-Sep-10 21:33N 58°40' W 002°59'1514.7
2014-Sep-10 20:33N 58°43' W 003°27'1211.6
2014-Sep-10 19:33N 58°42' W 003°49'1010.3
2014-Sep-10 18:33N 58°42' W 004°09'10 9.9
2014-Sep-10 17:32N 58°41' W 004°29'33 8.1
2014-Sep-10 13:28N 58°27' W 005°26'910.1
2014-Sep-10 12:33N 58°20' W 005°37'1010.0
2014-Sep-10 11:33N 58°12' W 005°48'1010.3
2014-Sep-10 10:33N 58°04' W 006°00'24610.1
2014-Sep-09 10:18N 54°34' W 009°51'810.1
2014-Sep-09 09:33N 54°28' W 009°58'1010.3
2014-Sep-09 08:32N 54°19' W 010°08'1111.0
2014-Sep-09 07:33N 54°10' W 010°19'1010.5
2014-Sep-09 06:33N 54°00' W 010°25'1110.6
2014-Sep-09 05:33N 53°50' W 010°25'1110.6
2014-Sep-09 04:34N 53°39' W 010°25'1110.3
2014-Sep-09 03:32N 53°29' W 010°21'1010.3
2014-Sep-09 02:33N 53°19' W 010°17'1010.1
2014-Sep-09 01:33N 53°09' W 010°13'10 9.9
2014-Sep-09 00:33N 52°60' W 010°09'10 9.8
2014-Sep-08 23:33N 52°50' W 010°05'10 9.9
2014-Sep-08 22:30N 52°40' W 010°01'8 8.9
2014-Sep-08 21:33N 52°32' W 009°55'1412.3
2014-Sep-08 20:27N 52°35' W 009°33'  
Track history (hours):
 
Tides and Currents Weather Stations Pressure Air Temp Water Temp Dewpoint Dewpoint Depression Visibility Wind Speed Wind Dir Waves Ship Positions

Avalon

Last reported at 2014-Sep-16 22:17 UTC. Time now 2014-Sep-17 13:37 UTC.
Position N 58°37' E 017°23'.

Length 89 m; draft 3.4 m.

Type: Cargo ship. MMSI: 246578000.

Date/timePositionNaut miles runAvg speedWind from/ knotsBaromVisibWave heightAir tempDewpointWater temp
2014-Sep-16 22:17N 58°37' E 017°23'810.8
2014-Sep-16 21:33N 58°38' E 017°08'1110.7
2014-Sep-16 20:34N 58°37' E 016°48'1111.0
2014-Sep-16 19:33N 58°39' E 016°27'7 6.6
2014-Sep-16 18:32N 58°37' E 016°15'0 0.0
2014-Sep-16 17:32N 58°37' E 016°15'0 0.0
2014-Sep-16 16:32N 58°37' E 016°15'0 0.0
2014-Sep-16 15:32N 58°37' E 016°15'0 0.0
2014-Sep-16 14:32N 58°37' E 016°15'0 0.0
2014-Sep-16 13:32N 58°37' E 016°15'0 0.0
2014-Sep-16 12:32N 58°37' E 016°15'0 0.0
2014-Sep-16 11:32N 58°37' E 016°15'0 0.0
2014-Sep-16 10:32N 58°37' E 016°15'0 0.0
2014-Sep-16 09:32N 58°37' E 016°15'0 0.0
2014-Sep-16 08:32N 58°37' E 016°15'0 0.0
2014-Sep-16 07:32N 58°37' E 016°15'0 0.0
2014-Sep-16 06:32N 58°37' E 016°15'0 0.0
2014-Sep-16 05:32N 58°37' E 016°15'0 0.0
2014-Sep-16 04:32N 58°37' E 016°15'0 0.0
2014-Sep-16 03:32N 58°37' E 016°15'0 0.0
2014-Sep-16 02:32N 58°37' E 016°15'0 0.0
2014-Sep-16 01:32N 58°37' E 016°15'0 0.0
2014-Sep-16 00:32N 58°37' E 016°15'0 0.0
2014-Sep-15 23:32N 58°37' E 016°15'0 0.0
2014-Sep-15 22:32N 58°37' E 016°15'0 0.0
2014-Sep-15 21:32N 58°37' E 016°15'0 0.0
2014-Sep-15 20:32N 58°37' E 016°15'0 0.0
2014-Sep-15 19:29N 58°37' E 016°15'0 0.0
2014-Sep-15 18:32N 58°37' E 016°15'0 0.0
2014-Sep-15 17:29N 58°37' E 016°15'0 0.0
2014-Sep-15 16:32N 58°37' E 016°15'0 0.0
2014-Sep-15 15:32N 58°37' E 016°15'0 0.0
2014-Sep-15 14:32N 58°37' E 016°15'0 0.0
2014-Sep-15 13:32N 58°37' E 016°15'0 0.0
2014-Sep-15 12:32N 58°37' E 016°15'0 0.0
2014-Sep-15 11:32N 58°37' E 016°15'0 0.0
2014-Sep-15 10:32N 58°37' E 016°15'0 0.0
2014-Sep-15 09:32N 58°37' E 016°15'0 0.0
2014-Sep-15 08:32N 58°37' E 016°15'0 0.0
2014-Sep-15 07:32N 58°37' E 016°15'0 0.0
2014-Sep-15 06:32N 58°37' E 016°15'0 0.0
2014-Sep-15 05:32N 58°37' E 016°15'0 0.0
2014-Sep-15 04:32N 58°37' E 016°15'2 1.6
2014-Sep-15 03:33N 58°38' E 016°18'8 7.5
2014-Sep-15 02:33N 58°39' E 016°32'8 8.1
2014-Sep-15 01:33N 58°37' E 016°47'8 7.6
2014-Sep-15 00:27N 58°38' E 017°04'7 7.8
2014-Sep-14 23:33N 58°37' E 017°17'8 5.4
2014-Sep-14 22:05N 58°30' E 017°25'46 9.4
2014-Sep-14 17:09N 57°44' E 017°18'6 9.5
2014-Sep-14 16:33N 57°38' E 017°18'9 9.4
2014-Sep-14 15:33N 57°29' E 017°16'10 9.5
2014-Sep-14 14:33N 57°20' E 017°15'10 9.6
2014-Sep-14 13:33N 57°10' E 017°12'10 9.6
2014-Sep-14 12:33N 57°01' E 017°08'9 9.3
2014-Sep-14 11:33N 56°52' E 017°05'10 9.3
2014-Sep-14 10:32N 56°42' E 017°02'9 9.3
2014-Sep-14 09:33N 56°33' E 016°58'9 9.1
2014-Sep-14 08:33N 56°24' E 016°55'20 9.0
2014-Sep-14 06:22N 56°05' E 016°47'17 8.7
2014-Sep-14 04:26N 55°56' E 016°22'66 8.3
2014-Sep-13 20:33N 55°25' E 014°40'8 8.0
2014-Sep-13 19:33N 55°19' E 014°30'8 7.7
2014-Sep-13 18:33N 55°13' E 014°21'40 7.8
2014-Sep-13 13:29N 55°14' E 013°12'9 9.5
2014-Sep-13 12:33N 55°15' E 012°56'10 9.5
2014-Sep-13 11:33N 55°18' E 012°40'9 9.2
2014-Sep-13 10:33N 55°27' E 012°40'9 9.4
2014-Sep-13 09:33N 55°36' E 012°42'9 8.9
2014-Sep-13 08:33N 55°45' E 012°40'10 9.6
2014-Sep-13 07:33N 55°54' E 012°38'9 9.1
2014-Sep-13 06:33N 56°03' E 012°38'9 8.8
2014-Sep-13 05:33N 56°09' E 012°25'10 9.7
2014-Sep-13 04:33N 56°14' E 012°11'9 9.0
2014-Sep-13 03:33N 56°22' E 012°02'1010.1
2014-Sep-13 02:32N 56°32' E 011°58'10 9.9
2014-Sep-13 01:33N 56°41' E 011°54'10 9.8
2014-Sep-13 00:33N 56°51' E 011°48'10 9.6
2014-Sep-12 23:32N 56°60' E 011°42'9 9.6
2014-Sep-12 22:33N 57°09' E 011°36'1010.1
2014-Sep-12 21:33N 57°18' E 011°29'1010.3
2014-Sep-12 20:33N 57°27' E 011°22'9 8.9
2014-Sep-12 19:33N 57°34' E 011°11'1010.0
2014-Sep-12 18:33N 57°41' E 010°57'10 9.6
2014-Sep-12 17:33N 57°47' E 010°44'1010.1
2014-Sep-12 16:33N 57°46' E 010°25'1010.4
2014-Sep-12 15:33N 57°44' E 010°06'1010.4
2014-Sep-12 14:33N 57°42' E 009°47'1110.3
2014-Sep-12 13:28N 57°39' E 009°27'38810.0
2014-Sep-10 22:33N 58°36' W 002°39'1111.4
2014-Sep-10 21:33N 58°40' W 002°59'1514.7
2014-Sep-10 20:33N 58°43' W 003°27'1211.6
2014-Sep-10 19:33N 58°42' W 003°49'1010.3
2014-Sep-10 18:33N 58°42' W 004°09'10 9.9
2014-Sep-10 17:32N 58°41' W 004°29'33 8.1
2014-Sep-10 13:28N 58°27' W 005°26'910.1
2014-Sep-10 12:33N 58°20' W 005°37'1010.0
2014-Sep-10 11:33N 58°12' W 005°48'1010.3
2014-Sep-10 10:33N 58°04' W 006°00'24610.1
2014-Sep-09 10:18N 54°34' W 009°51'810.1
2014-Sep-09 09:33N 54°28' W 009°58'1010.3
2014-Sep-09 08:32N 54°19' W 010°08'1111.0
2014-Sep-09 07:33N 54°10' W 010°19'1010.5
2014-Sep-09 06:33N 54°00' W 010°25'1110.6
2014-Sep-09 05:33N 53°50' W 010°25'1110.6
2014-Sep-09 04:34N 53°39' W 010°25'1110.3
2014-Sep-09 03:32N 53°29' W 010°21'1010.3
2014-Sep-09 02:33N 53°19' W 010°17'1010.1
2014-Sep-09 01:33N 53°09' W 010°13'10 9.9
2014-Sep-09 00:33N 52°60' W 010°09'10 9.8
2014-Sep-08 23:33N 52°50' W 010°05'10 9.9
2014-Sep-08 22:30N 52°40' W 010°01'8 8.9
2014-Sep-08 21:33N 52°32' W 009°55'1412.3
2014-Sep-08 20:27N 52°35' W 009°33'  

Dump ship's entire track history